Main page
METAR-TAF:

METAR-TAF

Airports :

Tabriz International Airport

Tabriz, Iran

latitude: 38-05N, longitude: 046-17E, elevation: 1367 m

Current weather observation

The report was made 38 minutes ago, at 05:00 UTC
Wind 12 kt from the East
Temperature 19°C
Humidity 49%
Pressure 1018 hPa
Visibility 10 km or more
Few clouds at a height of 1500 ft

METAR: OITT 150500Z 10012KT 9999 FEW015 19/08 Q1017 A3005 NOSIG

Time: 10:08 (05:38 UTC)

Forecast

The report was made 38 minutes ago, at 05:00 UTC
Forecast valid from 15 at 06 UTC to 16 at 12 UTC
Wind 14 kt from the Northeast
Visibility: 8000 m
Few clouds at a height of 2000 ft
Temporary
from 15 at 06 UTC to 15 at 15 UTC
Wind 23 kt from the Northeast
Becoming
from 16 at 04 UTC to 16 at 06 UTC
Wind 8 kt from the Northeast

TAF: OITT 150500Z 1506/1612 05007MPS 8000 FEW020 TEMPO 1506/1515 050012MPS BECMG 1604/1606 05004MPS

Weather observations and forecasts of more than 4000 airports (METAR and TAF reports).

The available stations are represented by yellow and red dots on the map.

Hover mouse over dot to see the name of the station.

Then click to see weather observations and forecasts.

To change the map : click on the green buttons with a black cross to zoom in, on the green button with a dash to zoom out, or on the green arrows for adjacent maps.


METAR-TAF: